createdAt,value
2022-10-31T00:00:19.947Z,21.6
2022-10-31T00:02:20.100Z,21.7
2022-10-31T00:04:19.907Z,21.6
2022-10-31T00:06:19.978Z,21.8
2022-10-31T00:08:50.021Z,21.7
2022-10-31T00:10:49.959Z,21.5
2022-10-31T00:12:49.889Z,21.6
2022-10-31T00:14:50.025Z,21.6
2022-10-31T00:16:50.006Z,21.8
2022-10-31T00:18:49.939Z,22.0
2022-10-31T00:20:49.911Z,22.1
2022-10-31T00:22:49.992Z,22.2
2022-10-31T00:24:49.875Z,21.7
2022-10-31T00:26:50.024Z,21.5
2022-10-31T00:28:49.896Z,21.5
2022-10-31T00:30:49.937Z,21.6
2022-10-31T00:32:49.975Z,21.7
2022-10-31T00:34:49.963Z,21.7
2022-10-31T00:36:50.046Z,21.6
2022-10-31T00:38:49.950Z,21.5
2022-10-31T00:40:50.032Z,21.0
2022-10-31T00:44:29.561Z,21.0
2022-10-31T00:46:59.636Z,21.1
2022-10-31T00:48:59.614Z,20.8
2022-10-31T00:50:59.675Z,20.8
2022-10-31T00:52:59.555Z,20.4
2022-10-31T00:54:59.567Z,20.3
2022-10-31T00:56:59.575Z,20.1
2022-10-31T00:58:59.560Z,19.8
2022-10-31T01:00:59.601Z,19.3
2022-10-31T01:02:59.823Z,19.6
2022-10-31T01:04:59.600Z,19.6
2022-10-31T01:06:59.570Z,20.0
2022-10-31T01:08:59.683Z,19.8
2022-10-31T01:10:59.571Z,19.8
2022-10-31T01:12:59.855Z,19.5
2022-10-31T01:14:59.624Z,19.4
2022-10-31T01:16:59.641Z,19.4
2022-10-31T01:18:59.659Z,19.2
2022-10-31T01:20:59.633Z,19.3
2022-10-31T01:22:59.701Z,19.1
2022-10-31T01:24:59.570Z,19.3
2022-10-31T01:26:59.624Z,19.4
2022-10-31T01:28:59.802Z,19.4
2022-10-31T01:30:59.625Z,19.5
2022-10-31T01:32:59.844Z,19.6
2022-10-31T01:34:59.650Z,19.5
2022-10-31T01:36:59.635Z,19.8
2022-10-31T01:38:59.650Z,19.8
2022-10-31T01:40:59.619Z,19.9
2022-10-31T01:42:59.930Z,20.1
2022-10-31T01:44:59.585Z,19.9
2022-10-31T01:46:59.710Z,20.0
2022-10-31T01:48:59.659Z,20.2
2022-10-31T01:50:59.608Z,20.0
2022-10-31T01:52:59.594Z,20.1
2022-10-31T01:54:59.612Z,20.0
2022-10-31T01:56:59.669Z,20.0
2022-10-31T01:58:59.602Z,20.0
2022-10-31T02:01:01.921Z,20.2
2022-10-31T02:02:59.851Z,20.1
2022-10-31T02:04:59.614Z,20.1
2022-10-31T02:06:59.620Z,20.1
2022-10-31T02:08:59.638Z,20.0
2022-10-31T02:10:59.722Z,20.0
2022-10-31T02:12:59.879Z,20.2
2022-10-31T02:14:59.656Z,20.3
2022-10-31T02:16:59.678Z,20.4
2022-10-31T02:18:59.610Z,20.4
2022-10-31T02:20:59.648Z,20.2
2022-10-31T02:22:59.759Z,20.5
2022-10-31T02:24:59.659Z,20.5
2022-10-31T02:26:59.662Z,20.1
2022-10-31T02:28:59.636Z,20.4
2022-10-31T02:30:59.669Z,20.3
2022-10-31T02:32:59.911Z,20.2
2022-10-31T02:34:59.669Z,20.3
2022-10-31T02:36:59.662Z,20.3
2022-10-31T02:38:59.692Z,20.3
2022-10-31T02:40:59.637Z,20.3
2022-10-31T02:43:00.143Z,20.0
2022-10-31T02:44:59.669Z,20.4
2022-10-31T02:47:29.643Z,20.3
2022-10-31T02:49:29.667Z,20.7
2022-10-31T02:51:29.635Z,21.0
2022-10-31T02:53:29.638Z,20.8
2022-10-31T02:55:29.669Z,20.8
2022-10-31T02:57:29.660Z,20.7
2022-10-31T02:59:29.708Z,20.8
2022-10-31T03:01:29.749Z,21.1
2022-10-31T03:03:29.666Z,21.3
2022-10-31T03:05:29.650Z,21.1
2022-10-31T03:07:29.708Z,21.1
2022-10-31T03:09:29.662Z,21.1
2022-10-31T03:11:29.643Z,21.4
2022-10-31T03:13:29.713Z,21.4
2022-10-31T03:15:29.740Z,21.4
2022-10-31T03:17:29.710Z,21.3
2022-10-31T03:19:34.318Z,21.5
2022-10-31T03:21:29.742Z,21.6
2022-10-31T03:23:29.694Z,21.6
2022-10-31T03:25:29.806Z,21.5
2022-10-31T03:27:29.702Z,21.9
2022-10-31T03:29:29.747Z,21.8
2022-10-31T03:31:29.711Z,21.8
2022-10-31T03:34:17.751Z,22.0
2022-10-31T03:35:29.764Z,22.1
2022-10-31T03:37:29.722Z,21.8
2022-10-31T03:39:29.760Z,21.8
2022-10-31T03:41:29.746Z,21.8
2022-10-31T03:43:29.762Z,22.1
2022-10-31T03:45:29.749Z,22.1
2022-10-31T03:47:29.726Z,22.4
2022-10-31T03:49:29.746Z,22.2
2022-10-31T03:51:29.697Z,22.0
2022-10-31T03:53:29.731Z,22.1
2022-10-31T03:55:29.773Z,22.1
2022-10-31T03:57:29.745Z,22.3
2022-10-31T03:59:29.738Z,22.3
2022-10-31T04:01:29.824Z,22.0
2022-10-31T04:03:29.765Z,21.6
2022-10-31T04:05:29.772Z,21.8
2022-10-31T04:07:29.717Z,21.9
2022-10-31T04:09:29.769Z,21.9
2022-10-31T04:11:29.768Z,21.5
2022-10-31T04:13:29.707Z,21.9
2022-10-31T04:15:29.760Z,21.8
2022-10-31T04:17:29.773Z,21.9
2022-10-31T04:19:29.730Z,22.0
2022-10-31T04:21:29.719Z,21.7
2022-10-31T04:23:29.766Z,21.6
2022-10-31T04:25:29.773Z,21.6
2022-10-31T04:27:29.730Z,21.7
2022-10-31T04:29:29.746Z,21.5
2022-10-31T04:31:29.785Z,21.3
2022-10-31T04:33:29.780Z,21.3
2022-10-31T04:35:30.002Z,21.2
2022-10-31T04:37:29.800Z,21.4
2022-10-31T04:39:29.755Z,21.1
2022-10-31T04:41:29.763Z,21.2
2022-10-31T04:43:29.792Z,21.1
2022-10-31T04:45:29.773Z,20.9
2022-10-31T04:47:29.788Z,21.0
2022-10-31T04:49:59.792Z,21.0
2022-10-31T04:51:59.875Z,21.0
2022-10-31T04:53:59.763Z,21.0
2022-10-31T04:55:59.849Z,21.0
2022-10-31T04:58:00.229Z,20.9
2022-10-31T04:59:59.754Z,20.9
2022-10-31T05:01:59.929Z,21.3
2022-10-31T05:03:59.785Z,21.2
2022-10-31T05:05:59.754Z,21.0
2022-10-31T05:07:59.748Z,20.7
2022-10-31T05:09:59.742Z,21.0
2022-10-31T05:11:59.806Z,20.9
2022-10-31T05:13:59.771Z,20.8
2022-10-31T05:15:59.781Z,20.9
2022-10-31T05:18:00.117Z,20.7
2022-10-31T05:19:59.801Z,20.7
2022-10-31T05:21:59.747Z,20.8
2022-10-31T05:23:59.803Z,20.8
2022-10-31T05:25:59.911Z,20.5
2022-10-31T05:28:00.129Z,20.7
2022-10-31T05:31:59.816Z,20.9
2022-10-31T05:33:59.831Z,20.5
2022-10-31T05:35:59.874Z,20.9
2022-10-31T05:37:59.798Z,20.9
2022-10-31T05:40:05.185Z,21.0
2022-10-31T05:41:59.790Z,20.9
2022-10-31T05:43:59.776Z,21.0
2022-10-31T05:45:59.793Z,20.8
2022-10-31T05:48:00.283Z,20.6
2022-10-31T05:49:59.846Z,20.7
2022-10-31T05:51:59.779Z,20.8
2022-10-31T05:53:59.771Z,20.8
2022-10-31T05:55:59.891Z,20.9
2022-10-31T05:58:00.116Z,20.9
2022-10-31T05:59:59.842Z,21.1
2022-10-31T06:01:59.812Z,21.0
2022-10-31T06:03:59.838Z,21.3
2022-10-31T06:05:59.841Z,21.3
2022-10-31T06:08:00.200Z,21.7
2022-10-31T06:09:59.878Z,21.4
2022-10-31T06:11:59.917Z,21.6
2022-10-31T06:13:59.865Z,21.7
2022-10-31T06:15:59.803Z,21.7
2022-10-31T06:18:00.151Z,22.1
2022-10-31T06:19:59.898Z,22.0
2022-10-31T06:21:59.855Z,22.0
2022-10-31T06:23:59.827Z,22.0
2022-10-31T06:25:59.992Z,22.1
2022-10-31T06:27:59.868Z,22.0
2022-10-31T06:29:59.949Z,22.3
2022-10-31T06:31:59.901Z,22.3
2022-10-31T06:33:59.817Z,22.5
2022-10-31T06:35:59.854Z,22.3
2022-10-31T06:38:00.258Z,22.3
2022-10-31T06:39:59.886Z,22.0
2022-10-31T06:41:59.917Z,22.1
2022-10-31T06:44:03.448Z,22.1
2022-10-31T06:46:29.870Z,22.3
2022-10-31T06:48:29.851Z,22.4
2022-10-31T06:50:29.872Z,22.4
2022-10-31T06:52:29.900Z,22.2
2022-10-31T06:54:30.007Z,22.0
2022-10-31T06:56:30.021Z,22.1
2022-10-31T06:58:29.946Z,22.4
2022-10-31T07:00:30.031Z,22.1
2022-10-31T07:02:30.084Z,21.9
2022-10-31T07:04:29.944Z,21.7
2022-10-31T07:06:30.066Z,21.7
2022-10-31T07:08:29.918Z,21.7
2022-10-31T07:10:31.220Z,21.8
2022-10-31T07:12:30.112Z,21.6
2022-10-31T07:14:29.832Z,21.5
2022-10-31T07:16:29.924Z,21.4
2022-10-31T07:18:29.939Z,21.2
2022-10-31T07:20:29.870Z,21.2
2022-10-31T07:22:29.896Z,21.0
2022-10-31T07:24:29.841Z,21.0
2022-10-31T07:26:29.936Z,21.0
2022-10-31T07:28:29.948Z,21.1
2022-10-31T07:30:29.952Z,20.7
2022-10-31T07:32:29.961Z,20.5
2022-10-31T07:34:30.111Z,20.3
2022-10-31T07:36:29.941Z,20.1
2022-10-31T07:38:30.050Z,20.1
2022-10-31T07:40:37.681Z,20.4
2022-10-31T07:42:37.556Z,20.1
2022-10-31T07:44:37.615Z,19.9
2022-10-31T07:46:38.006Z,19.9
2022-10-31T07:48:37.687Z,19.8
2022-10-31T07:50:37.706Z,19.9
2022-10-31T07:52:37.589Z,19.8
2022-10-31T07:54:37.618Z,20.3
2022-10-31T07:56:37.651Z,20.0
2022-10-31T07:58:37.563Z,19.8
2022-10-31T08:00:37.984Z,19.7
2022-10-31T08:02:37.668Z,19.7
2022-10-31T08:04:37.714Z,19.8
2022-10-31T08:06:37.659Z,19.9
2022-10-31T08:08:38.506Z,19.8
2022-10-31T08:10:37.599Z,19.8
2022-10-31T08:12:37.629Z,19.8
2022-10-31T08:14:37.585Z,19.7
2022-10-31T08:16:37.592Z,19.6
2022-10-31T08:18:37.692Z,19.5
2022-10-31T08:20:37.736Z,19.9
2022-10-31T08:22:42.908Z,20.1
2022-10-31T08:26:37.623Z,20.6
2022-10-31T08:28:37.666Z,20.4
2022-10-31T08:30:37.679Z,20.6
2022-10-31T08:32:37.684Z,20.7
2022-10-31T08:34:37.613Z,20.8
2022-10-31T08:36:37.707Z,20.9
2022-10-31T08:38:37.636Z,21.0
2022-10-31T08:40:37.656Z,21.0
2022-10-31T08:42:37.745Z,21.1
2022-10-31T08:44:37.609Z,21.4
2022-10-31T08:46:37.611Z,21.1
2022-10-31T08:48:37.686Z,21.0
2022-10-31T08:50:37.639Z,21.0
2022-10-31T08:53:03.091Z,21.2
2022-10-31T08:54:37.626Z,21.0
2022-10-31T08:56:37.666Z,21.3
2022-10-31T08:58:40.195Z,21.3
2022-10-31T09:00:37.712Z,21.4
2022-10-31T09:02:37.688Z,21.5
2022-10-31T09:04:37.661Z,21.6
2022-10-31T09:06:38.074Z,21.5
2022-10-31T09:08:37.627Z,21.4
2022-10-31T09:10:37.599Z,21.3
2022-10-31T09:12:37.705Z,21.3
2022-10-31T09:14:37.623Z,21.5
2022-10-31T09:16:37.635Z,21.5
2022-10-31T09:19:11.283Z,21.6
2022-10-31T09:21:07.676Z,21.4
2022-10-31T09:23:07.784Z,21.4
2022-10-31T09:25:07.680Z,21.5
2022-10-31T09:27:07.697Z,21.0
2022-10-31T09:29:07.730Z,21.1
2022-10-31T09:31:07.722Z,20.9
2022-10-31T09:33:07.967Z,21.0
2022-10-31T09:35:07.791Z,21.1
2022-10-31T09:37:07.725Z,21.0
2022-10-31T09:39:07.639Z,21.1
2022-10-31T09:41:07.800Z,20.8
2022-10-31T09:43:07.764Z,20.6
2022-10-31T09:45:08.714Z,20.6
2022-10-31T09:47:07.720Z,20.7
2022-10-31T09:49:07.761Z,20.9
2022-10-31T09:51:07.738Z,20.9
2022-10-31T09:53:07.801Z,20.8
2022-10-31T09:55:07.691Z,21.0
2022-10-31T09:57:07.852Z,20.6
2022-10-31T09:59:07.716Z,20.9
2022-10-31T10:01:07.857Z,20.7
2022-10-31T10:03:07.724Z,20.7
2022-10-31T10:05:07.748Z,20.7
2022-10-31T10:07:07.746Z,20.6
2022-10-31T10:09:07.886Z,20.7
2022-10-31T10:13:09.375Z,21.2
2022-10-31T10:15:07.723Z,21.3
2022-10-31T10:17:07.730Z,21.3
2022-10-31T10:19:07.756Z,21.3
2022-10-31T10:21:07.777Z,21.3
2022-10-31T10:23:07.792Z,21.0
2022-10-31T10:25:07.678Z,20.9
2022-10-31T10:27:07.808Z,21.2
2022-10-31T10:29:07.772Z,21.3
2022-10-31T10:31:07.770Z,21.4
2022-10-31T10:33:07.670Z,21.3
2022-10-31T10:35:07.779Z,21.3
2022-10-31T10:37:07.805Z,21.3
2022-10-31T10:39:07.729Z,21.5
2022-10-31T10:41:07.838Z,21.5
2022-10-31T10:43:07.835Z,21.7
2022-10-31T10:45:07.694Z,21.8
2022-10-31T10:47:07.739Z,22.1
2022-10-31T10:49:07.812Z,21.9
2022-10-31T10:51:12.643Z,22.0
2022-10-31T10:53:07.828Z,21.9
2022-10-31T10:55:07.812Z,21.9
2022-10-31T10:57:07.716Z,22.0
2022-10-31T10:59:07.736Z,21.8
2022-10-31T11:01:07.918Z,21.8
2022-10-31T11:03:07.848Z,21.9
2022-10-31T11:05:07.786Z,21.8
2022-10-31T11:07:07.787Z,21.8
2022-10-31T11:09:07.870Z,21.9
2022-10-31T11:11:07.862Z,21.6
2022-10-31T11:13:07.866Z,21.4
2022-10-31T11:15:07.765Z,21.5
2022-10-31T11:17:07.760Z,21.5
2022-10-31T11:19:07.796Z,21.6
2022-10-31T11:21:07.824Z,21.4
2022-10-31T11:23:37.897Z,21.7
2022-10-31T11:25:38.030Z,21.8
2022-10-31T11:27:38.006Z,21.8
2022-10-31T11:29:38.031Z,21.7
2022-10-31T11:31:37.979Z,21.7
2022-10-31T11:33:37.807Z,21.9
2022-10-31T11:37:37.806Z,22.1
2022-10-31T11:39:37.742Z,22.5
2022-10-31T11:41:37.840Z,22.6
2022-10-31T11:43:37.840Z,22.6
2022-10-31T11:45:37.777Z,22.6
2022-10-31T11:47:37.753Z,22.3
2022-10-31T11:49:37.835Z,22.2
2022-10-31T11:51:37.826Z,22.0
2022-10-31T11:53:37.825Z,21.9
2022-10-31T11:55:37.888Z,21.7
2022-10-31T11:57:37.869Z,21.7
2022-10-31T11:59:37.831Z,21.9
2022-10-31T12:01:42.508Z,22.0
2022-10-31T12:03:37.782Z,21.7
2022-10-31T12:05:37.846Z,22.2
2022-10-31T12:07:38.015Z,22.4
2022-10-31T12:09:37.894Z,22.6
2022-10-31T12:11:37.867Z,22.7
2022-10-31T12:13:37.896Z,22.6
2022-10-31T12:15:37.817Z,22.6
2022-10-31T12:17:37.800Z,22.8
2022-10-31T12:19:37.811Z,22.6
2022-10-31T12:21:37.809Z,22.5
2022-10-31T12:23:37.830Z,22.6
2022-10-31T12:25:37.888Z,22.7
2022-10-31T12:27:37.869Z,22.6
2022-10-31T12:29:37.798Z,22.5
2022-10-31T12:31:37.921Z,22.3
2022-10-31T12:33:37.942Z,22.1
2022-10-31T12:35:37.851Z,22.4
2022-10-31T12:37:37.891Z,22.1
2022-10-31T12:39:37.816Z,21.6
2022-10-31T12:41:37.854Z,21.8
2022-10-31T12:43:37.887Z,21.7
2022-10-31T12:45:37.798Z,21.6
2022-10-31T12:47:37.945Z,21.7
2022-10-31T12:49:37.816Z,21.9
2022-10-31T12:51:37.841Z,21.8
2022-10-31T12:53:37.868Z,22.3
2022-10-31T12:55:37.903Z,22.3
2022-10-31T12:57:37.909Z,22.4
2022-10-31T12:59:37.936Z,22.1
2022-10-31T13:01:37.897Z,22.0
2022-10-31T13:03:37.979Z,21.9
2022-10-31T13:05:37.864Z,21.4
2022-10-31T13:07:37.834Z,21.4
2022-10-31T13:09:37.874Z,21.1
2022-10-31T13:11:37.892Z,20.9
2022-10-31T13:13:37.883Z,21.0
2022-10-31T13:15:37.908Z,21.1
2022-10-31T13:17:37.847Z,20.8
2022-10-31T13:19:37.979Z,20.8
2022-10-31T13:21:37.902Z,20.6
2022-10-31T13:23:50.377Z,20.5
2022-10-31T13:25:37.926Z,20.4
2022-10-31T13:27:37.902Z,20.5
2022-10-31T13:30:07.928Z,20.6
2022-10-31T13:32:07.841Z,20.8
2022-10-31T13:34:07.948Z,20.8
2022-10-31T13:36:07.997Z,20.3
2022-10-31T13:38:07.916Z,20.7
2022-10-31T13:40:07.907Z,20.6
2022-10-31T13:42:07.922Z,20.3
2022-10-31T13:44:07.902Z,20.4
2022-10-31T13:46:08.090Z,20.5
2022-10-31T13:48:08.009Z,20.3
2022-10-31T13:50:07.962Z,20.2
2022-10-31T13:52:07.881Z,20.0
2022-10-31T13:54:07.908Z,19.7
2022-10-31T13:56:07.931Z,19.5
2022-10-31T13:58:07.955Z,19.4
2022-10-31T14:00:07.940Z,19.9
2022-10-31T14:02:08.027Z,20.3
2022-10-31T14:04:13.083Z,20.4
2022-10-31T14:06:07.943Z,20.3
2022-10-31T14:08:08.046Z,20.5
2022-10-31T14:10:07.912Z,20.4
2022-10-31T14:12:07.945Z,21.0
2022-10-31T14:14:07.943Z,20.9
2022-10-31T14:16:08.061Z,21.1
2022-10-31T14:18:08.019Z,21.1
2022-10-31T14:20:07.974Z,20.9
2022-10-31T14:22:07.935Z,21.1
2022-10-31T14:24:07.859Z,21.3
2022-10-31T14:26:07.918Z,21.2
2022-10-31T14:28:08.008Z,21.1
2022-10-31T14:30:07.991Z,21.4
2022-10-31T14:34:07.998Z,21.6
2022-10-31T14:36:08.011Z,21.9
2022-10-31T14:38:08.054Z,21.5
2022-10-31T14:40:07.908Z,21.7
2022-10-31T14:46:16.390Z,21.8
2022-10-31T14:48:16.406Z,21.7
2022-10-31T14:50:16.246Z,21.9
2022-10-31T14:52:16.311Z,21.9
2022-10-31T14:54:16.249Z,22.5
2022-10-31T14:56:16.347Z,22.5
2022-10-31T14:58:16.389Z,22.7
2022-10-31T15:00:16.358Z,22.4
2022-10-31T15:02:16.429Z,22.5
2022-10-31T15:04:25.268Z,22.6
2022-10-31T15:06:16.344Z,22.5
2022-10-31T15:08:16.344Z,22.4
2022-10-31T15:10:16.334Z,22.6
2022-10-31T15:12:16.341Z,22.2
2022-10-31T15:14:16.388Z,22.0
2022-10-31T15:16:16.474Z,21.9
2022-10-31T15:18:16.383Z,21.8
2022-10-31T15:20:16.427Z,22.1
2022-10-31T15:22:16.431Z,22.0
2022-10-31T15:24:16.327Z,21.9
2022-10-31T15:26:16.387Z,21.9
2022-10-31T15:28:16.418Z,22.0
2022-10-31T15:30:16.396Z,21.9
2022-10-31T15:32:16.420Z,21.5
2022-10-31T15:34:16.447Z,21.5
2022-10-31T15:36:16.354Z,21.5
2022-10-31T15:38:16.345Z,21.5
2022-10-31T15:40:16.338Z,21.1
2022-10-31T15:42:16.381Z,21.2
2022-10-31T15:44:16.300Z,21.2
2022-10-31T15:46:16.383Z,21.4
2022-10-31T15:48:16.416Z,21.4
2022-10-31T15:50:16.465Z,21.7
2022-10-31T15:52:16.357Z,22.0
2022-10-31T15:54:16.367Z,21.8
2022-10-31T15:56:16.366Z,21.8
2022-10-31T15:58:16.412Z,21.6
2022-10-31T16:00:16.385Z,21.4
2022-10-31T16:02:16.708Z,21.1
2022-10-31T16:04:16.407Z,20.9
2022-10-31T16:06:46.340Z,21.1
2022-10-31T16:08:46.356Z,21.2
2022-10-31T16:10:46.356Z,21.1
2022-10-31T16:12:46.375Z,20.8
2022-10-31T16:14:46.400Z,20.5
2022-10-31T16:16:46.452Z,20.5
2022-10-31T16:18:46.438Z,20.6
2022-10-31T16:20:46.443Z,20.7
2022-10-31T16:22:46.383Z,20.6
2022-10-31T16:24:46.363Z,20.4
2022-10-31T16:26:46.424Z,20.4
2022-10-31T16:28:48.772Z,20.3
2022-10-31T16:30:48.505Z,20.3
2022-10-31T16:32:46.465Z,20.3
2022-10-31T16:34:46.463Z,20.3
2022-10-31T16:36:46.378Z,20.1
2022-10-31T16:38:46.347Z,20.1
2022-10-31T16:40:46.391Z,20.2
2022-10-31T16:42:46.733Z,20.3
2022-10-31T16:44:46.318Z,20.3
2022-10-31T16:46:46.445Z,20.2
2022-10-31T16:48:46.472Z,20.3
2022-10-31T16:50:46.514Z,20.1
2022-10-31T16:53:01.054Z,19.8
2022-10-31T16:54:46.376Z,19.9
2022-10-31T16:56:46.399Z,20.0
2022-10-31T16:58:46.440Z,20.0
2022-10-31T17:00:46.518Z,19.8
2022-10-31T17:02:46.457Z,19.8
2022-10-31T17:04:47.640Z,20.0
2022-10-31T17:06:46.394Z,19.8
2022-10-31T17:08:46.527Z,19.8
2022-10-31T17:10:46.425Z,19.8
2022-10-31T17:12:46.444Z,19.9
2022-10-31T17:14:46.422Z,20.0
2022-10-31T17:16:46.435Z,20.2
2022-10-31T17:18:46.477Z,20.0
2022-10-31T17:20:46.467Z,19.9
2022-10-31T17:22:46.451Z,19.9
2022-10-31T17:24:46.553Z,20.1
2022-10-31T17:26:46.420Z,20.0
2022-10-31T17:28:46.410Z,20.2
2022-10-31T17:30:46.449Z,20.2
2022-10-31T17:32:46.449Z,20.5
2022-10-31T17:34:46.476Z,20.3
2022-10-31T17:36:46.384Z,20.2
2022-10-31T17:38:46.514Z,20.1
2022-10-31T17:40:49.181Z,20.3
2022-10-31T17:42:46.471Z,20.1
2022-10-31T17:44:46.409Z,20.0
2022-10-31T17:46:46.466Z,20.1
2022-10-31T17:48:46.534Z,19.7
2022-10-31T17:50:46.495Z,19.6
2022-10-31T17:52:46.450Z,19.6
2022-10-31T17:54:46.569Z,19.9
2022-10-31T17:56:46.421Z,19.7
2022-10-31T17:58:46.402Z,19.9
2022-10-31T18:00:50.383Z,20.1
2022-10-31T18:02:46.504Z,20.1
2022-10-31T18:04:46.474Z,20.2
2022-10-31T18:07:16.419Z,20.5
2022-10-31T18:09:17.421Z,20.4
2022-10-31T18:11:16.466Z,20.5
2022-10-31T18:13:16.461Z,20.9
2022-10-31T18:15:16.442Z,21.1
2022-10-31T18:17:16.511Z,20.7
2022-10-31T18:19:16.440Z,20.7
2022-10-31T18:21:16.428Z,20.7
2022-10-31T18:23:16.403Z,20.4
2022-10-31T18:25:16.403Z,20.6
2022-10-31T18:27:16.472Z,20.9
2022-10-31T18:29:16.422Z,20.7
2022-10-31T18:31:16.609Z,20.6
2022-10-31T18:33:16.475Z,20.7
2022-10-31T18:35:16.533Z,21.0
2022-10-31T18:37:16.432Z,21.1
2022-10-31T18:39:16.443Z,21.3
2022-10-31T18:41:16.434Z,21.2
2022-10-31T18:43:16.437Z,21.3
2022-10-31T18:45:32.643Z,21.4
2022-10-31T18:47:16.508Z,21.6
2022-10-31T18:49:16.522Z,21.8
2022-10-31T18:51:16.530Z,21.7
2022-10-31T18:53:16.539Z,21.8
2022-10-31T18:55:16.553Z,22.0
2022-10-31T18:57:17.538Z,21.7
2022-10-31T18:59:16.474Z,21.8
2022-10-31T19:01:16.580Z,21.8
2022-10-31T19:03:16.493Z,21.7
2022-10-31T19:05:16.463Z,21.8
2022-10-31T19:07:16.538Z,21.6
2022-10-31T19:09:16.485Z,21.7
2022-10-31T19:11:16.470Z,21.5
2022-10-31T19:13:16.533Z,21.4
2022-10-31T19:15:16.533Z,21.3
2022-10-31T19:17:16.551Z,21.7
2022-10-31T19:19:16.549Z,22.0
2022-10-31T19:21:16.564Z,22.1
2022-10-31T19:23:16.570Z,22.3
2022-10-31T19:25:16.600Z,22.3
2022-10-31T19:27:16.484Z,21.9
2022-10-31T19:29:16.479Z,21.7
2022-10-31T19:31:16.489Z,21.9
2022-10-31T19:33:16.590Z,21.8
2022-10-31T19:35:16.582Z,21.8
2022-10-31T19:37:16.572Z,21.8
2022-10-31T19:39:16.582Z,21.8
2022-10-31T19:41:16.581Z,21.6
2022-10-31T19:43:16.582Z,21.7
2022-10-31T19:45:16.487Z,21.5
2022-10-31T19:47:16.569Z,21.3
2022-10-31T19:49:16.542Z,21.4
2022-10-31T19:51:16.584Z,21.3
2022-10-31T19:53:16.589Z,21.1
2022-10-31T19:55:16.609Z,21.0
2022-10-31T19:57:20.528Z,21.3
2022-10-31T19:59:16.508Z,21.1
2022-10-31T20:01:16.737Z,21.3
2022-10-31T20:03:19.822Z,21.4
2022-10-31T20:05:16.573Z,21.1
2022-10-31T20:07:46.577Z,21.2
2022-10-31T20:09:46.626Z,21.1
2022-10-31T20:11:46.527Z,21.0
2022-10-31T20:13:46.481Z,21.1
2022-10-31T20:15:46.548Z,21.4
2022-10-31T20:17:46.550Z,21.2
2022-10-31T20:19:46.541Z,20.8
2022-10-31T20:21:46.580Z,20.6
2022-10-31T20:23:46.619Z,20.5
2022-10-31T20:25:46.591Z,20.5
2022-10-31T20:27:46.530Z,20.6
2022-10-31T20:29:46.595Z,20.7
2022-10-31T20:31:47.125Z,20.5
2022-10-31T20:33:46.611Z,20.5
2022-10-31T20:35:46.613Z,20.5
2022-10-31T20:37:46.648Z,20.4
2022-10-31T20:39:46.629Z,20.7
2022-10-31T20:41:46.593Z,20.6
2022-10-31T20:43:46.694Z,20.7
2022-10-31T20:45:46.536Z,20.7
2022-10-31T20:47:46.601Z,20.9
2022-10-31T20:49:46.580Z,20.7
2022-10-31T20:51:46.609Z,20.7
2022-10-31T20:53:46.735Z,21.1
2022-10-31T20:55:46.597Z,21.2
2022-10-31T20:57:46.656Z,21.3
2022-10-31T20:59:46.518Z,21.3
2022-10-31T21:01:46.699Z,21.0
2022-10-31T21:03:46.612Z,21.2
2022-10-31T21:05:46.620Z,21.3
2022-10-31T21:07:46.698Z,21.1
2022-10-31T21:09:46.627Z,21.1
2022-10-31T21:11:46.728Z,21.4
2022-10-31T21:13:46.755Z,21.3
2022-10-31T21:15:46.591Z,21.1
2022-10-31T21:17:46.680Z,21.4
2022-10-31T21:19:46.600Z,21.6
2022-10-31T21:21:46.661Z,21.7
2022-10-31T21:23:46.620Z,21.7
2022-10-31T21:25:46.661Z,21.7
2022-10-31T21:27:46.671Z,21.7
2022-10-31T21:29:46.640Z,21.7
2022-10-31T21:31:46.613Z,21.8
2022-10-31T21:33:46.755Z,21.6
2022-10-31T21:35:46.681Z,21.4
2022-10-31T21:37:46.755Z,21.5
2022-10-31T21:39:50.627Z,21.2
2022-10-31T21:41:46.680Z,21.4
2022-10-31T21:43:46.568Z,21.3
2022-10-31T21:45:46.687Z,21.4
2022-10-31T21:47:46.701Z,21.5
2022-10-31T21:49:46.614Z,21.6
2022-10-31T21:51:46.714Z,21.6
2022-10-31T21:53:46.771Z,21.3
2022-10-31T21:57:46.742Z,21.3
2022-10-31T22:00:01.775Z,21.5
2022-10-31T22:02:01.919Z,21.5
2022-10-31T22:04:01.798Z,21.3
2022-10-31T22:06:01.857Z,21.3
2022-10-31T22:08:02.083Z,21.3
2022-10-31T22:10:01.793Z,21.3
2022-10-31T22:12:01.827Z,21.3
2022-10-31T22:14:01.686Z,21.1
2022-10-31T22:16:01.765Z,21.3
2022-10-31T22:18:02.077Z,21.1
2022-10-31T22:20:01.852Z,21.1
2022-10-31T22:22:01.819Z,21.1
2022-10-31T22:24:04.995Z,21.0
2022-10-31T22:26:01.736Z,21.0
2022-10-31T22:28:02.127Z,20.9
2022-10-31T22:30:01.784Z,21.0
2022-10-31T22:32:02.127Z,21.2
2022-10-31T22:34:01.793Z,21.3
2022-10-31T22:36:01.865Z,21.2
2022-10-31T22:38:01.810Z,21.3
2022-10-31T22:40:01.741Z,21.4
2022-10-31T22:42:01.883Z,21.2
2022-10-31T22:44:01.759Z,21.1
2022-10-31T22:46:01.777Z,21.1
2022-10-31T22:48:02.182Z,20.9
2022-10-31T22:50:01.800Z,20.6
2022-10-31T22:52:01.816Z,20.8
2022-10-31T22:54:01.838Z,20.5
2022-10-31T22:56:01.806Z,20.3
2022-10-31T22:58:02.111Z,20.3
2022-10-31T23:00:01.811Z,20.2
2022-10-31T23:02:31.840Z,20.3
2022-10-31T23:04:31.851Z,20.3
2022-10-31T23:06:31.845Z,20.1
2022-10-31T23:08:31.836Z,20.0
2022-10-31T23:10:31.748Z,19.9
2022-10-31T23:12:31.884Z,19.9
2022-10-31T23:14:31.968Z,20.0
2022-10-31T23:16:31.825Z,19.8
2022-10-31T23:18:49.238Z,19.6
2022-10-31T23:20:31.881Z,19.6
2022-10-31T23:22:31.813Z,19.5
2022-10-31T23:24:32.075Z,19.3
2022-10-31T23:26:31.861Z,19.5
2022-10-31T23:28:31.886Z,19.4
2022-10-31T23:30:31.865Z,19.0
2022-10-31T23:32:31.792Z,19.2
2022-10-31T23:34:31.819Z,19.1
2022-10-31T23:36:31.818Z,19.0
2022-10-31T23:38:31.863Z,19.0
2022-10-31T23:40:31.893Z,18.7
2022-10-31T23:42:31.889Z,18.9
2022-10-31T23:44:31.816Z,18.9
2022-10-31T23:46:31.812Z,19.0
2022-10-31T23:48:31.805Z,19.2
2022-10-31T23:50:31.890Z,19.3
2022-10-31T23:52:31.933Z,19.3
2022-10-31T23:54:31.901Z,19.4
2022-10-31T23:56:31.868Z,19.4
2022-10-31T23:58:31.784Z,19.8
